Danville, NH (03819)

6:48 PM EDT on May 28, 2015 (GMT -0400)
KensBackyard.com | | Change Station
CLOSE
Current Station
Personal Weather Station
Location: Fremont, NH
Elevation: 154 ft
Nearby Weather Stations

Elev 154 ft 42.96 °N, 71.12 °W | Updated 0 second ago

Mostly Cloudy
Mostly Cloudy
75.2 °F
Feels Like 76 °F
N
0.0
Wind Variable Wind from WNW
Gusts 4.0 mph

Today
High -- | Low -- °F
--% Chance of Precip.
Yesterday
High -- | Low -- °F
Precip. -- in
5:10 AM 8:13 PM
Waxing Gibbous, 79% visible
Pressure 30.10 in
Visibility 10.0 miles
Clouds Scattered Clouds 4700 ft
Scattered Clouds 6000 ft
Heat Index 76 °F
Dew Point 67 °F
Humidity 75%
Rainfall 0.02 in
Snow Depth Not available.
UV 1 out of 12
Pollen 10.00 out of 12
Air Quality Not available.
Flu Activity Sporadic
SPECI KLWM 282223Z 23006KT 10SM SCT047 SCT060 21/19 A3010 RMK AO2 LTG DSNT E AND SE RAB2157E08 P0000 T02110189

More Conditions Fewer Conditions

Pressure 30.10 in
Visibility 10.0 miles
Clouds Scattered Clouds 4700 ft
Scattered Clouds 6000 ft
Heat Index 76 °F
Dew Point 67 °F
Humidity 75%
Rainfall 0.02 in
Snow Depth Not available.
UV 1 out of 12
Pollen 10.00 out of 12
Air Quality Not available.
Flu Activity Sporadic
SPECI KLWM 282223Z 23006KT 10SM SCT047 SCT060 21/19 A3010 RMK AO2 LTG DSNT E AND SE RAB2157E08 P0000 T02110189

More Conditions Fewer Conditions

10-Day Weather Forecast

Almanac

Astronomy

May. 28, 2015 Rise Set
Actual Time
Civil Twilight
Nautical Twilight
Astronomical Twilight
Moon
Length of Visible Light
Length of Day
Tomorrow will be .
, % of the Moon is Illuminated

Today's Extremes

State Highs State Lows

Community

WunderPhotos

Upload Photos

1,825,083 photos uploaded!

WunderBlogs® & News

Nearby

Air Quality

  Air Quality AQ Index Pollutant
Not available.

Snow Depth

Station Depth Elevation

Earthquake Activity

City Distance Mag. Time & Date
Minimum magnitude displayed is 2.5.

Coastal Water Temperatures

Place Temperature

Stations

Nearby Weather Stations

Station Location Temp. Windchill Dew Point Humidity Wind Precip. Elev Updated Type